Arnots Addition, Pennsylvania
Current Conditions -  °F | °C
As of 5:55 AM on Wednesday 26 Nov 2014 (Local Time) from KHZL Reporting Station
Overcast Overcast  
Wind Chill: 31°   Ceiling: 8000
Heat Index: 36°   Visibility: 10mi
Dew Point: 28°   Wind: 6mph
Humidity: 75%   Direction: 360°N
Pressure: 30.13"   Gusts: NA
Location:  40.7406°N, 76.2241°W
Report Text: KHZL 261055Z AUTO 36005KT 10SM BKN080 OVC090 02/M02 A3013 RMK AO2
Loading
Personal Weather Stations






























Interactive Weather Map New forecast layout! Learn more

10-Day Weather Forecast

Advertisements
Track Severe Weather on mobile